createdAt,value
2019-05-06T00:00:25.650Z,98424.03
2019-05-06T00:02:54.731Z,98421.34
2019-05-06T00:05:25.458Z,98421.91
2019-05-06T00:07:54.736Z,98417.74
2019-05-06T00:10:34.135Z,98415.70
2019-05-06T00:13:04.596Z,98415.84
2019-05-06T00:15:34.377Z,98410.41
2019-05-06T00:18:04.459Z,98411.94
2019-05-06T00:20:34.760Z,98416.37
2019-05-06T00:23:05.550Z,98419.69
2019-05-06T00:25:53.554Z,98426.59
2019-05-06T00:28:24.433Z,98427.29
2019-05-06T00:31:09.468Z,98426.98
2019-05-06T00:33:28.184Z,98424.91
2019-05-06T00:35:56.917Z,98434.80
2019-05-06T00:38:25.707Z,98436.64
2019-05-06T00:41:14.340Z,98436.53
2019-05-06T00:43:43.714Z,98430.16
2019-05-06T00:46:13.850Z,98430.42
2019-05-06T00:48:44.802Z,98429.72
2019-05-06T00:51:13.595Z,98431.23
2019-05-06T00:53:43.907Z,98428.16
2019-05-06T00:56:14.000Z,98430.02
2019-05-06T00:58:43.689Z,98434.59
2019-05-06T01:01:24.033Z,98438.44
2019-05-06T01:03:44.250Z,98436.70
2019-05-06T01:06:14.286Z,98436.55
2019-05-06T01:08:44.042Z,98437.86
2019-05-06T01:11:14.408Z,98433.30
2019-05-06T01:13:47.969Z,98428.63
2019-05-06T01:16:18.253Z,98434.49
2019-05-06T01:18:46.979Z,98446.52
2019-05-06T01:21:15.864Z,98441.45
2019-05-06T01:23:45.698Z,98447.58
2019-05-06T01:26:16.726Z,98450.56
2019-05-06T01:28:45.858Z,98444.07
2019-05-06T01:31:14.880Z,98441.86
2019-05-06T01:33:45.253Z,98436.31
2019-05-06T01:36:14.389Z,98442.91
2019-05-06T01:38:47.637Z,98443.83
2019-05-06T01:41:20.951Z,98448.67
2019-05-06T01:43:49.666Z,98446.78
2019-05-06T01:46:18.390Z,98449.30
2019-05-06T01:48:49.780Z,98447.08
2019-05-06T01:51:20.510Z,98457.31
2019-05-06T01:53:49.626Z,98453.17
2019-05-06T01:56:18.915Z,98453.98
2019-05-06T01:58:47.835Z,98446.98
2019-05-06T02:01:16.668Z,98450.98
2019-05-06T02:03:45.619Z,98446.41
2019-05-06T02:06:14.343Z,98450.80
2019-05-06T02:08:44.711Z,98448.49
2019-05-06T02:11:14.897Z,98457.53
2019-05-06T02:13:44.407Z,98464.40
2019-05-06T02:16:14.757Z,98464.42
2019-05-06T02:18:44.911Z,98468.91
2019-05-06T02:21:18.161Z,98468.08
2019-05-06T02:23:53.429Z,98459.39
2019-05-06T02:26:23.787Z,98447.36
2019-05-06T02:28:56.786Z,98439.56
2019-05-06T02:31:45.978Z,98444.48
2019-05-06T02:34:18.440Z,98451.05
2019-05-06T02:36:48.729Z,98448.36
2019-05-06T02:39:17.447Z,98443.23
2019-05-06T02:41:46.343Z,98453.73
2019-05-06T02:44:15.087Z,98449.35
2019-05-06T02:46:45.364Z,98451.06
2019-05-06T02:49:18.918Z,98458.36
2019-05-06T02:51:47.632Z,98463.27
2019-05-06T02:54:16.356Z,98462.41
2019-05-06T02:56:45.226Z,98468.20
2019-05-06T02:59:13.967Z,98481.34
2019-05-06T03:01:43.397Z,98484.81
2019-05-06T03:04:13.185Z,98480.34
2019-05-06T03:06:44.680Z,98488.20
2019-05-06T03:09:13.427Z,98482.23
2019-05-06T03:11:43.782Z,98483.91
2019-05-06T03:14:13.896Z,98482.25
2019-05-06T03:16:43.993Z,98500.76
2019-05-06T03:19:13.564Z,98501.22
2019-05-06T03:21:44.840Z,98501.57
2019-05-06T03:24:19.548Z,98503.66
2019-05-06T03:26:56.128Z,98503.78
2019-05-06T03:29:20.292Z,98510.69
2019-05-06T03:31:49.056Z,98510.03
2019-05-06T03:34:38.467Z,98508.30
2019-05-06T03:36:49.179Z,98514.20
2019-05-06T03:39:18.203Z,98517.14
2019-05-06T03:41:46.923Z,98515.51
2019-05-06T03:44:16.702Z,98520.07
2019-05-06T03:47:05.715Z,98523.03
2019-05-06T03:49:42.635Z,98526.51
2019-05-06T03:52:13.639Z,98530.99
2019-05-06T03:54:45.316Z,98525.70
2019-05-06T03:57:14.725Z,98530.05
2019-05-06T03:59:44.859Z,98525.53
2019-05-06T04:02:13.683Z,98528.77
2019-05-06T04:04:44.008Z,98528.16
2019-05-06T04:07:14.077Z,98518.55
2019-05-06T04:09:44.210Z,98522.35
2019-05-06T04:12:14.184Z,98525.92
2019-05-06T04:14:43.412Z,98525.36
2019-05-06T04:17:14.312Z,98522.56
2019-05-06T04:19:45.002Z,98531.91
2019-05-06T04:22:18.530Z,98535.98
2019-05-06T04:24:55.109Z,98535.96
2019-05-06T04:27:33.582Z,98535.67
2019-05-06T04:30:04.734Z,98529.27
2019-05-06T04:32:34.107Z,98533.83
2019-05-06T04:35:04.444Z,98533.20
2019-05-06T04:37:34.088Z,98533.79
2019-05-06T04:40:04.486Z,98535.19
2019-05-06T04:42:34.485Z,98535.14
2019-05-06T04:45:04.571Z,98526.81
2019-05-06T04:47:33.795Z,98528.47
2019-05-06T04:50:04.828Z,98524.23
2019-05-06T04:52:34.157Z,98523.00
2019-05-06T04:55:03.849Z,98528.34
2019-05-06T04:57:33.570Z,98520.38
2019-05-06T05:00:04.172Z,98526.34
2019-05-06T05:02:33.775Z,98523.24
2019-05-06T05:05:04.236Z,98513.23
2019-05-06T05:07:33.622Z,98520.34
2019-05-06T05:10:04.036Z,98519.20
2019-05-06T05:12:34.380Z,98521.96
2019-05-06T05:15:11.846Z,98525.88
2019-05-06T05:17:45.327Z,98528.18
2019-05-06T05:20:14.145Z,98525.02
2019-05-06T05:22:42.870Z,98527.75
2019-05-06T05:25:12.613Z,98529.20
2019-05-06T05:27:42.173Z,98521.22
2019-05-06T05:30:12.499Z,98517.08
2019-05-06T05:32:42.851Z,98519.35
2019-05-06T05:35:14.584Z,98523.67
2019-05-06T05:37:43.313Z,98517.63
2019-05-06T05:40:13.078Z,98515.31
2019-05-06T05:42:43.525Z,98519.67
2019-05-06T05:45:12.920Z,98521.55
2019-05-06T05:47:42.542Z,98521.52
2019-05-06T05:50:16.091Z,98521.22
2019-05-06T05:52:45.148Z,98521.19
2019-05-06T05:55:14.083Z,98521.31
2019-05-06T05:57:43.296Z,98524.42
2019-05-06T06:00:12.891Z,98520.17
2019-05-06T06:02:43.761Z,98515.88
2019-05-06T06:05:12.685Z,98520.39
2019-05-06T06:07:42.226Z,98524.45
2019-05-06T06:10:25.783Z,98526.70
2019-05-06T06:12:55.303Z,98524.74
2019-05-06T06:15:32.934Z,98525.02
2019-05-06T06:18:15.716Z,98529.49
2019-05-06T06:20:46.383Z,98535.87
2019-05-06T06:23:16.669Z,98533.31
2019-05-06T06:25:45.407Z,98535.81
2019-05-06T06:28:14.295Z,98534.50
2019-05-06T06:31:00.091Z,98526.32
2019-05-06T06:33:28.871Z,98523.69
2019-05-06T06:36:05.167Z,98519.52
2019-05-06T06:38:47.714Z,98515.11
2019-05-06T06:41:16.833Z,98509.83
2019-05-06T06:43:47.323Z,98513.86
2019-05-06T06:46:17.086Z,98518.35
2019-05-06T06:48:45.808Z,98524.76
2019-05-06T06:51:14.534Z,98521.02
2019-05-06T06:53:43.392Z,98509.72
2019-05-06T06:56:29.789Z,98509.20
2019-05-06T06:59:07.762Z,98509.70
2019-05-06T07:01:54.291Z,98515.97
2019-05-06T07:04:32.429Z,98508.47
2019-05-06T07:07:03.226Z,98507.55
2019-05-06T07:09:32.348Z,98510.81
2019-05-06T07:12:03.485Z,98511.92
2019-05-06T07:14:32.639Z,98509.90
2019-05-06T07:17:02.515Z,98505.83
2019-05-06T07:19:32.937Z,98501.03
2019-05-06T07:22:02.912Z,98493.73
2019-05-06T07:24:32.464Z,98495.45
2019-05-06T07:27:08.936Z,98487.00
2019-05-06T07:29:37.655Z,98489.06
2019-05-06T07:32:06.380Z,98488.78
2019-05-06T07:34:35.265Z,98480.56
2019-05-06T07:37:04.089Z,98485.00
2019-05-06T07:39:33.435Z,98478.75
2019-05-06T07:42:04.031Z,98482.17
2019-05-06T07:44:37.620Z,98475.83
2019-05-06T07:47:15.777Z,98474.13
2019-05-06T07:49:44.694Z,98467.43
2019-05-06T07:52:13.419Z,98462.52
2019-05-06T07:54:43.093Z,98454.59
2019-05-06T07:57:12.769Z,98451.04
2019-05-06T07:59:42.872Z,98457.85
2019-05-06T08:02:13.114Z,98454.77
2019-05-06T08:04:42.210Z,98458.06
2019-05-06T08:07:12.596Z,98458.15
2019-05-06T08:09:42.333Z,98453.64
2019-05-06T08:12:12.360Z,98448.16
2019-05-06T08:14:42.988Z,98456.23
2019-05-06T08:17:15.066Z,98458.94
2019-05-06T08:19:46.911Z,98454.77
2019-05-06T08:22:34.795Z,98453.35
2019-05-06T08:25:03.648Z,98446.61
2019-05-06T08:27:32.948Z,98445.84
2019-05-06T08:30:02.630Z,98439.79
2019-05-06T08:32:32.166Z,98436.38
2019-05-06T08:35:03.394Z,98437.14
2019-05-06T08:37:36.132Z,98429.64
2019-05-06T08:40:07.647Z,98428.06
2019-05-06T08:42:36.447Z,98432.19
2019-05-06T08:45:07.160Z,98426.23
2019-05-06T08:47:36.194Z,98416.13
2019-05-06T08:50:08.388Z,98423.20
2019-05-06T08:52:54.855Z,98421.03
2019-05-06T08:55:32.589Z,98411.91
2019-05-06T08:58:03.132Z,98403.11
2019-05-06T09:00:32.679Z,98410.88
2019-05-06T09:03:04.014Z,98414.69
2019-05-06T09:05:33.078Z,98404.11
2019-05-06T09:08:03.678Z,98400.92
2019-05-06T09:10:32.604Z,98388.09
2019-05-06T09:13:01.976Z,98382.84
2019-05-06T09:15:32.701Z,98380.91
2019-05-06T09:18:03.001Z,98383.42
2019-05-06T09:20:33.621Z,98375.13
2019-05-06T09:23:04.523Z,98376.25
2019-05-06T09:25:33.139Z,98372.92
2019-05-06T09:28:03.589Z,98377.14
2019-05-06T09:30:47.009Z,98374.52
2019-05-06T09:33:17.550Z,98365.36
2019-05-06T09:35:46.272Z,98357.38
2019-05-06T09:38:14.988Z,98356.43
2019-05-06T09:40:43.801Z,98355.52
2019-05-06T09:43:13.270Z,98353.74
2019-05-06T09:45:42.620Z,98344.36
2019-05-06T09:48:33.048Z,98350.13
2019-05-06T09:51:02.900Z,98341.16
2019-05-06T09:53:39.417Z,98339.27
2019-05-06T09:56:23.050Z,98332.44
2019-05-06T09:58:52.934Z,98319.25
2019-05-06T10:01:22.490Z,98319.16
2019-05-06T10:03:52.928Z,98303.80
2019-05-06T10:06:22.286Z,98303.80
2019-05-06T10:08:51.165Z,98314.17
2019-05-06T10:11:19.898Z,98298.44
2019-05-06T10:13:48.688Z,98284.36
2019-05-06T10:16:17.432Z,98283.61
2019-05-06T10:18:46.164Z,98277.58
2019-05-06T10:21:15.533Z,98267.62
2019-05-06T10:23:44.270Z,98268.30
2019-05-06T10:26:13.090Z,98257.86
2019-05-06T10:28:46.653Z,98258.01
2019-05-06T10:31:17.037Z,98250.59
2019-05-06T10:34:03.829Z,98254.95
2019-05-06T10:36:37.282Z,98251.61
2019-05-06T10:39:12.677Z,98249.39
2019-05-06T10:41:44.386Z,98239.38
2019-05-06T10:44:38.680Z,98233.20
2019-05-06T10:47:07.435Z,98231.13
2019-05-06T10:49:36.159Z,98214.98
2019-05-06T10:52:15.410Z,98213.80
2019-05-06T10:54:44.151Z,98208.55
2019-05-06T10:57:15.378Z,98202.51
2019-05-06T10:59:44.182Z,98193.28
2019-05-06T11:02:32.257Z,98185.05
2019-05-06T11:05:02.775Z,98175.76
2019-05-06T11:07:34.973Z,98178.77
2019-05-06T11:10:02.613Z,98177.67
2019-05-06T11:12:32.589Z,98178.75
2019-05-06T11:15:03.427Z,98172.07
2019-05-06T11:17:32.656Z,98171.70
2019-05-06T11:20:06.202Z,98172.28
2019-05-06T11:22:32.757Z,98159.44
2019-05-06T11:25:03.121Z,98149.14
2019-05-06T11:27:34.037Z,98151.72
2019-05-06T11:30:04.294Z,98152.59
2019-05-06T11:32:34.589Z,98150.20
2019-05-06T11:35:12.320Z,98128.27
2019-05-06T11:37:50.521Z,98132.02
2019-05-06T11:40:18.123Z,98128.02
2019-05-06T11:42:46.840Z,98124.17
2019-05-06T11:45:15.955Z,98131.20
2019-05-06T11:47:44.752Z,98124.89
2019-05-06T11:50:13.923Z,98125.11
2019-05-06T11:52:43.409Z,98117.43
2019-05-06T11:55:27.060Z,98106.25
2019-05-06T11:57:45.254Z,98115.70
2019-05-06T12:00:16.247Z,98104.63
2019-05-06T12:02:48.656Z,98098.85
2019-05-06T12:05:15.778Z,98080.67
2019-05-06T12:08:00.480Z,98087.03
2019-05-06T12:10:15.228Z,98085.83
2019-05-06T12:12:43.954Z,98084.26
2019-05-06T12:15:12.873Z,98068.41
2019-05-06T12:17:42.258Z,98064.24
2019-05-06T12:20:13.119Z,98057.45
2019-05-06T12:22:42.376Z,98058.05
2019-05-06T12:25:15.424Z,98055.11
2019-05-06T12:27:46.263Z,98050.06
2019-05-06T12:30:22.996Z,98055.13
2019-05-06T12:32:56.367Z,98036.39
2019-05-06T12:35:25.090Z,98038.56
2019-05-06T12:37:55.453Z,98044.73
2019-05-06T12:40:24.173Z,98049.66
2019-05-06T12:42:54.486Z,98057.54
2019-05-06T12:45:24.934Z,98078.42
2019-05-06T12:47:55.228Z,98107.61
2019-05-06T12:50:23.944Z,98087.02
2019-05-06T12:52:52.933Z,98088.77
2019-05-06T12:55:25.193Z,98099.42
2019-05-06T12:57:53.729Z,98085.72
2019-05-06T13:00:23.611Z,98090.86
2019-05-06T13:02:53.217Z,98068.42
2019-05-06T13:05:23.532Z,98057.11
2019-05-06T13:07:58.342Z,98040.52
2019-05-06T13:10:27.105Z,98039.88
2019-05-06T13:12:57.434Z,98025.11
2019-05-06T13:15:26.248Z,98028.50
2019-05-06T13:17:54.983Z,98026.37
2019-05-06T13:20:23.774Z,98044.28
2019-05-06T13:23:07.410Z,98048.42
2019-05-06T13:25:32.807Z,98058.56
2019-05-06T13:28:01.753Z,98062.09
2019-05-06T13:30:32.639Z,98064.09
2019-05-06T13:33:09.540Z,98063.14
2019-05-06T13:35:38.451Z,98067.08
2019-05-06T13:38:07.258Z,98072.86
2019-05-06T13:40:52.800Z,98064.12
2019-05-06T13:43:13.115Z,98064.12
2019-05-06T13:45:59.650Z,98069.52
2019-05-06T13:48:32.430Z,98083.34
2019-05-06T13:51:08.191Z,98083.86
2019-05-06T13:53:39.665Z,98082.70
2019-05-06T13:56:07.989Z,98087.55
2019-05-06T13:58:39.722Z,98100.57
2019-05-06T14:01:10.102Z,98094.14
2019-05-06T14:03:38.844Z,98104.51
2019-05-06T14:06:07.567Z,98107.79
2019-05-06T14:08:36.414Z,98114.31
2019-05-06T14:11:05.124Z,98124.77
2019-05-06T14:13:33.846Z,98131.78
2019-05-06T14:16:03.924Z,98135.70
2019-05-06T14:18:33.709Z,98146.66
2019-05-06T14:21:03.388Z,98142.09
2019-05-06T14:23:36.726Z,98140.39
2019-05-06T14:26:12.401Z,98163.51
2019-05-06T14:28:42.954Z,98163.44
2019-05-06T14:31:19.547Z,98177.72
2019-05-06T14:33:48.411Z,98179.16
2019-05-06T14:36:17.131Z,98190.29
2019-05-06T14:38:47.328Z,98193.91
2019-05-06T14:41:26.102Z,98208.71
2019-05-06T14:43:51.243Z,98218.36
2019-05-06T14:46:22.437Z,98218.57
2019-05-06T14:48:53.264Z,98223.36
2019-05-06T14:51:22.292Z,98216.00
2019-05-06T14:53:52.943Z,98207.73
2019-05-06T14:56:29.302Z,98213.08
2019-05-06T14:59:04.987Z,98215.26
2019-05-06T15:01:35.030Z,98227.44
2019-05-06T15:04:04.636Z,98241.61
2019-05-06T15:06:33.356Z,98249.03
2019-05-06T15:09:03.792Z,98253.19
2019-05-06T15:11:32.637Z,98253.76
2019-05-06T15:14:03.512Z,98241.85
2019-05-06T15:16:33.719Z,98238.27
2019-05-06T15:19:03.970Z,98234.69
2019-05-06T15:21:37.886Z,98230.48
2019-05-06T15:24:03.877Z,98238.06
2019-05-06T15:26:33.371Z,98237.69
2019-05-06T15:29:03.384Z,98243.70
2019-05-06T15:31:35.878Z,98243.34
2019-05-06T15:34:06.306Z,98249.22
2019-05-06T15:36:49.087Z,98261.72
2019-05-06T15:39:20.590Z,98267.98
2019-05-06T15:41:49.314Z,98275.73
2019-05-06T15:44:19.309Z,98271.58
2019-05-06T15:46:48.033Z,98270.78
2019-05-06T15:49:16.757Z,98269.06
2019-05-06T15:51:45.555Z,98261.89
2019-05-06T15:54:14.275Z,98272.89
2019-05-06T15:56:43.011Z,98267.39
2019-05-06T15:59:12.189Z,98280.85
2019-05-06T16:01:43.153Z,98277.64
2019-05-06T16:04:12.229Z,98275.17
2019-05-06T16:06:44.464Z,98276.30
2019-05-06T16:09:14.225Z,98278.52
2019-05-06T16:11:44.622Z,98282.23
2019-05-06T16:14:12.701Z,98287.53
2019-05-06T16:16:42.973Z,98290.89
2019-05-06T16:19:14.562Z,98300.30
2019-05-06T16:21:45.283Z,98303.68
2019-05-06T16:24:18.449Z,98312.94
2019-05-06T16:26:47.162Z,98310.05
2019-05-06T16:29:15.953Z,98315.55
2019-05-06T16:31:44.695Z,98316.66
2019-05-06T16:34:14.624Z,98319.45
2019-05-06T16:36:44.531Z,98324.52
2019-05-06T16:39:13.221Z,98319.79
2019-05-06T16:41:42.257Z,98324.73
2019-05-06T16:44:12.884Z,98329.81
2019-05-06T16:46:42.634Z,98334.38
2019-05-06T16:49:14.023Z,98340.05
2019-05-06T16:51:44.081Z,98334.51
2019-05-06T16:54:12.580Z,98336.07
2019-05-06T16:56:45.712Z,98337.35
2019-05-06T16:59:14.563Z,98339.02
2019-05-06T17:01:44.985Z,98346.19
2019-05-06T17:04:24.473Z,98350.66
2019-05-06T17:06:53.589Z,98354.74
2019-05-06T17:09:27.511Z,98364.47
2019-05-06T17:11:54.663Z,98362.19
2019-05-06T17:14:23.384Z,98371.45
2019-05-06T17:16:52.724Z,98377.28
2019-05-06T17:19:23.000Z,98382.87
2019-05-06T17:21:52.476Z,98387.09
2019-05-06T17:24:21.987Z,98392.20
2019-05-06T17:26:55.679Z,98402.11
2019-05-06T17:29:42.822Z,98411.52
2019-05-06T17:32:16.301Z,98411.45
2019-05-06T17:34:52.831Z,98422.78
2019-05-06T17:37:41.973Z,98419.80
2019-05-06T17:40:14.009Z,98430.31
2019-05-06T17:42:42.766Z,98425.72
2019-05-06T17:45:32.215Z,98427.13
2019-05-06T17:48:20.545Z,98427.89
2019-05-06T17:51:07.051Z,98429.80
2019-05-06T17:53:35.787Z,98442.19
2019-05-06T17:56:05.204Z,98443.78
2019-05-06T17:58:34.070Z,98448.97
2019-05-06T18:01:03.376Z,98448.69
2019-05-06T18:03:32.730Z,98446.05
2019-05-06T18:06:07.058Z,98453.48
2019-05-06T18:08:33.469Z,98450.23
2019-05-06T18:11:02.316Z,98446.84
2019-05-06T18:13:31.126Z,98448.56
2019-05-06T18:15:59.869Z,98458.49
2019-05-06T18:18:29.076Z,98466.03
2019-05-06T18:20:58.026Z,98474.28
2019-05-06T18:23:26.784Z,98481.45
2019-05-06T18:25:55.572Z,98491.66
2019-05-06T18:28:24.422Z,98500.86
2019-05-06T18:30:53.162Z,98505.77
2019-05-06T18:33:22.559Z,98508.40
2019-05-06T18:35:53.522Z,98521.09
2019-05-06T18:38:21.942Z,98519.84
2019-05-06T18:40:52.850Z,98526.27
2019-05-06T18:43:22.909Z,98524.30
2019-05-06T18:45:52.183Z,98526.88
2019-05-06T18:48:21.829Z,98527.77
2019-05-06T18:50:51.958Z,98535.59
2019-05-06T18:53:22.625Z,98537.94
2019-05-06T18:55:51.428Z,98535.80
2019-05-06T18:58:22.378Z,98530.98
2019-05-06T19:00:53.029Z,98527.88
2019-05-06T19:03:22.538Z,98536.09
2019-05-06T19:05:52.982Z,98527.55
2019-05-06T19:08:38.809Z,98529.70
2019-05-06T19:11:09.261Z,98535.42
2019-05-06T19:13:37.982Z,98536.38
2019-05-06T19:16:06.708Z,98542.47
2019-05-06T19:18:35.459Z,98547.08
2019-05-06T19:21:04.365Z,98558.16
2019-05-06T19:23:33.084Z,98557.77
2019-05-06T19:26:02.852Z,98570.09
2019-05-06T19:28:32.473Z,98567.16
2019-05-06T19:31:03.112Z,98565.00
2019-05-06T19:33:34.720Z,98574.25
2019-05-06T19:36:03.212Z,98575.68
2019-05-06T19:38:33.562Z,98581.05
2019-05-06T19:41:05.830Z,98582.92
2019-05-06T19:43:34.180Z,98583.77
2019-05-06T19:46:02.925Z,98584.25
2019-05-06T19:48:32.784Z,98590.37
2019-05-06T19:51:03.096Z,98589.30
2019-05-06T19:53:32.367Z,98593.20
2019-05-06T19:56:02.794Z,98601.09
2019-05-06T19:58:33.843Z,98603.35
2019-05-06T20:01:02.492Z,98601.52
2019-05-06T20:03:32.717Z,98602.39
2019-05-06T20:06:10.397Z,98603.03
2019-05-06T20:08:48.268Z,98596.05
2019-05-06T20:11:19.739Z,98609.70
2019-05-06T20:13:48.472Z,98603.23
2019-05-06T20:16:19.926Z,98605.64
2019-05-06T20:18:47.796Z,98603.53
2019-05-06T20:21:16.532Z,98609.21
2019-05-06T20:23:47.003Z,98610.73
2019-05-06T20:26:15.728Z,98614.31
2019-05-06T20:28:47.160Z,98613.87
2019-05-06T20:31:16.051Z,98614.11
2019-05-06T20:33:44.771Z,98608.31
2019-05-06T20:36:13.506Z,98614.45
2019-05-06T20:38:43.417Z,98607.23
2019-05-06T20:41:12.690Z,98607.09
2019-05-06T20:43:42.346Z,98598.73
2019-05-06T20:46:13.062Z,98591.98
2019-05-06T20:48:42.218Z,98590.33
2019-05-06T20:51:12.294Z,98596.34
2019-05-06T20:53:43.199Z,98586.61
2019-05-06T20:56:12.496Z,98584.42
2019-05-06T20:58:42.005Z,98583.87
2019-05-06T21:01:12.011Z,98579.20
2019-05-06T21:03:42.371Z,98578.88
2019-05-06T21:06:13.281Z,98583.47
2019-05-06T21:08:42.889Z,98579.31
2019-05-06T21:11:24.956Z,98579.62
2019-05-06T21:13:43.269Z,98586.97
2019-05-06T21:16:12.999Z,98591.74
2019-05-06T21:18:42.054Z,98596.11
2019-05-06T21:21:10.745Z,98600.27
2019-05-06T21:23:42.772Z,98604.71
2019-05-06T21:26:13.522Z,98607.03
2019-05-06T21:28:42.576Z,98605.72
2019-05-06T21:31:12.594Z,98601.79
2019-05-06T21:33:42.561Z,98610.28
2019-05-06T21:36:12.368Z,98604.51
2019-05-06T21:38:42.693Z,98603.97
2019-05-06T21:41:12.361Z,98605.38
2019-05-06T21:43:47.186Z,98597.42
2019-05-06T21:46:12.971Z,98608.00
2019-05-06T21:48:42.121Z,98603.30
2019-05-06T21:51:12.720Z,98604.51
2019-05-06T21:53:41.480Z,98608.88
2019-05-06T21:56:10.204Z,98610.55
2019-05-06T21:58:42.644Z,98616.45
2019-05-06T22:01:11.283Z,98610.98
2019-05-06T22:03:40.004Z,98617.33
2019-05-06T22:06:08.737Z,98617.97
2019-05-06T22:08:37.507Z,98629.63
2019-05-06T22:11:06.324Z,98631.69
2019-05-06T22:13:35.080Z,98634.30
2019-05-06T22:16:04.830Z,98625.23
2019-05-06T22:18:33.846Z,98625.37
2019-05-06T22:21:11.327Z,98635.07
2019-05-06T22:23:47.867Z,98627.55
2019-05-06T22:26:16.635Z,98630.61
2019-05-06T22:28:45.355Z,98632.02
2019-05-06T22:31:14.169Z,98624.49
2019-05-06T22:33:43.001Z,98621.64
2019-05-06T22:36:13.159Z,98622.95
2019-05-06T22:38:44.161Z,98621.94
2019-05-06T22:41:12.709Z,98616.50
2019-05-06T22:43:42.411Z,98619.45
2019-05-06T22:46:12.338Z,98610.09
2019-05-06T22:48:43.314Z,98608.34
2019-05-06T22:51:12.365Z,98613.61
2019-05-06T22:53:42.504Z,98597.22
2019-05-06T22:56:13.419Z,98603.35
2019-05-06T22:58:42.792Z,98600.19
2019-05-06T23:01:29.822Z,98596.16
2019-05-06T23:03:58.739Z,98595.59
2019-05-06T23:06:27.461Z,98594.81
2019-05-06T23:08:56.350Z,98591.55
2019-05-06T23:11:25.072Z,98594.39
2019-05-06T23:13:53.786Z,98591.87
2019-05-06T23:16:22.714Z,98589.58
2019-05-06T23:18:52.461Z,98592.00
2019-05-06T23:21:23.216Z,98597.78
2019-05-06T23:23:54.400Z,98589.92
2019-05-06T23:26:23.736Z,98587.50
2019-05-06T23:28:52.712Z,98582.47
2019-05-06T23:31:24.327Z,98581.83
2019-05-06T23:33:53.357Z,98577.45
2019-05-06T23:36:22.908Z,98575.16
2019-05-06T23:39:27.953Z,98575.38
2019-05-06T23:42:32.705Z,98574.53
2019-05-06T23:45:38.727Z,98581.28
2019-05-06T23:48:43.761Z,98577.45
2019-05-06T23:51:48.819Z,98579.31
2019-05-06T23:54:53.730Z,98581.49
2019-05-06T23:57:22.505Z,98572.11
2019-05-06T23:59:54.671Z,98575.71
